Daska Weather



Daska's Current Weather

Temprature 22.99o few clouds

few clouds

Rain: 0 %

Min Temprature22.81o
Max Temprature22.99o
Humidity84
Wind Speed2.27 m/h
Sun Rise05:53:00
Sun Set17:55:06
Current Time: 26-Sep-2022 07:20:54
Lat/Lon: 32.3243, 74.3497




Daska's Geo Location



Daska's Weather Forecast

Time Overall Temp Min Temp Max Temp Humidity Wind Speed Rain
26-Sep-2022 (Mon)
08:00:00 few clouds 22.990 22.990 23.640 78 2.53 m/h 0 %
11:00:00 few clouds 24.820 24.820 28.470 72 2.42 m/h 0 %
14:00:00 clear sky 28.270 28.270 30.910 58 2.03 m/h 0 %
17:00:00 clear sky 29.360 29.360 29.360 56 0.19 m/h 0 %
20:00:00 clear sky 25.520 25.520 25.520 60 1.13 m/h 0 %
23:00:00 clear sky 24.350 24.350 24.350 64 0.71 m/h 0 %
27-Sep-2022 (Tue)
02:00:00 clear sky 23.000 23.000 23.000 71 1.53 m/h 0 %
05:00:00 clear sky 22.250 22.250 22.250 75 1.55 m/h 0 %
08:00:00 clear sky 25.440 25.440 25.440 66 1.09 m/h 0 %
11:00:00 clear sky 30.840 30.840 30.840 51 0.39 m/h 0 %
14:00:00 clear sky 32.820 32.820 32.820 44 0.89 m/h 0 %
17:00:00 clear sky 30.790 30.790 30.790 54 1.63 m/h 0 %
20:00:00 clear sky 26.690 26.690 26.690 64 2.55 m/h 0 %
23:00:00 clear sky 25.000 25.000 25.000 70 2.09 m/h 0 %
28-Sep-2022 (Wed)
02:00:00 clear sky 24.130 24.130 24.130 75 1.95 m/h 0 %
05:00:00 clear sky 23.340 23.340 23.340 79 1.79 m/h 0 %
08:00:00 clear sky 26.380 26.380 26.380 70 1.85 m/h 0 %
11:00:00 clear sky 31.070 31.070 31.070 53 2 m/h 0 %
14:00:00 clear sky 33.460 33.460 33.460 44 1.09 m/h 0 %
17:00:00 clear sky 31.370 31.370 31.370 54 2.12 m/h 0 %
20:00:00 clear sky 27.470 27.470 27.470 63 2.63 m/h 0 %
23:00:00 clear sky 25.830 25.830 25.830 69 1.84 m/h 0 %
29-Sep-2022 (Thu)
02:00:00 clear sky 24.750 24.750 24.750 74 1.62 m/h 0 %
05:00:00 clear sky 23.780 23.780 23.780 78 1.6 m/h 0 %
08:00:00 clear sky 26.720 26.720 26.720 70 2.12 m/h 0 %
11:00:00 clear sky 31.440 31.440 31.440 53 1.77 m/h 0 %
14:00:00 clear sky 34.020 34.020 34.020 42 0.83 m/h 0 %
17:00:00 clear sky 31.930 31.930 31.930 51 1.95 m/h 0 %
20:00:00 clear sky 27.950 27.950 27.950 60 2.54 m/h 0 %
23:00:00 clear sky 26.300 26.300 26.300 66 1.15 m/h 0 %
30-Sep-2022 (Fri)
02:00:00 clear sky 25.220 25.220 25.220 71 1.29 m/h 0 %
05:00:00 clear sky 24.190 24.190 24.190 74 1.46 m/h 0 %
08:00:00 clear sky 26.630 26.630 26.630 69 2.41 m/h 0 %
11:00:00 clear sky 31.510 31.510 31.510 52 1.81 m/h 0 %
14:00:00 clear sky 34.520 34.520 34.520 39 0.71 m/h 0 %
17:00:00 clear sky 32.120 32.120 32.120 48 1.83 m/h 0 %
20:00:00 clear sky 27.910 27.910 27.910 58 2.44 m/h 0 %
23:00:00 clear sky 26.100 26.100 26.100 65 2.09 m/h 0 %
01-Oct-2022 (Sat)
02:00:00 clear sky 24.920 24.920 24.920 70 1.79 m/h 0 %
05:00:00 clear sky 24.000 24.000 24.000 74 1.31 m/h 0 %

Famous Cities (61)